createdAt,value
2023-05-17T00:00:10.363Z,53.90
2023-05-17T00:02:38.239Z,53.80
2023-05-17T00:05:06.857Z,53.80
2023-05-17T00:07:34.578Z,53.90
2023-05-17T00:10:02.328Z,53.90
2023-05-17T00:12:30.052Z,53.80
2023-05-17T00:14:59.232Z,53.80
2023-05-17T00:17:26.974Z,53.90
2023-05-17T00:19:54.791Z,53.90
2023-05-17T00:22:22.509Z,53.90
2023-05-17T00:24:50.313Z,53.80
2023-05-17T00:27:18.045Z,53.90
2023-05-17T00:29:45.903Z,53.90
2023-05-17T00:32:14.921Z,53.90
2023-05-17T00:34:42.634Z,53.80
2023-05-17T00:37:10.359Z,53.90
2023-05-17T00:39:38.158Z,53.90
2023-05-17T00:42:06.327Z,53.80
2023-05-17T00:44:34.094Z,53.80
2023-05-17T00:47:03.024Z,53.80
2023-05-17T00:49:32.044Z,53.80
2023-05-17T00:51:59.816Z,53.80
2023-05-17T00:54:27.657Z,53.80
2023-05-17T00:56:56.952Z,53.90
2023-05-17T00:59:24.666Z,53.80
2023-05-17T01:01:52.392Z,53.90
2023-05-17T01:04:20.167Z,53.90
2023-05-17T01:06:49.267Z,53.90
2023-05-17T01:09:17.162Z,53.90
2023-05-17T01:11:49.593Z,53.90
2023-05-17T01:14:29.074Z,53.90
2023-05-17T01:16:58.092Z,54.60
2023-05-17T01:19:46.402Z,54.00
2023-05-17T01:22:21.836Z,54.00
2023-05-17T01:24:53.980Z,54.00
2023-05-17T01:27:23.130Z,54.10
2023-05-17T01:29:51.157Z,54.00
2023-05-17T01:32:18.860Z,54.10
2023-05-17T01:34:46.589Z,54.10
2023-05-17T01:37:14.273Z,54.20
2023-05-17T01:39:42.345Z,54.10
2023-05-17T01:42:12.712Z,54.10
2023-05-17T01:44:44.589Z,54.10
2023-05-17T01:47:14.644Z,54.00
2023-05-17T01:49:42.437Z,54.00
2023-05-17T01:52:13.187Z,54.00
2023-05-17T01:54:44.618Z,54.00
2023-05-17T01:57:12.319Z,54.00
2023-05-17T01:59:40.134Z,54.00
2023-05-17T02:02:09.653Z,54.00
2023-05-17T02:04:37.612Z,54.00
2023-05-17T02:07:05.658Z,54.00
2023-05-17T02:09:33.420Z,54.00
2023-05-17T02:12:01.371Z,54.00
2023-05-17T02:14:29.159Z,54.00
2023-05-17T02:16:57.782Z,54.00
2023-05-17T02:19:26.910Z,54.00
2023-05-17T02:21:54.684Z,54.00
2023-05-17T02:24:23.353Z,54.00
2023-05-17T02:26:51.055Z,54.00
2023-05-17T02:29:18.817Z,54.00
2023-05-17T02:31:46.616Z,54.00
2023-05-17T02:34:14.360Z,54.00
2023-05-17T02:36:44.444Z,54.00
2023-05-17T02:39:13.869Z,53.90
2023-05-17T02:41:41.594Z,54.00
2023-05-17T02:44:09.307Z,53.90
2023-05-17T02:46:38.447Z,54.00
2023-05-17T02:49:06.405Z,53.90
2023-05-17T02:51:34.108Z,54.00
2023-05-17T02:54:03.745Z,54.10
2023-05-17T02:56:31.484Z,54.00
2023-05-17T02:59:01.225Z,54.10
2023-05-17T03:01:29.567Z,54.00
2023-05-17T03:03:57.461Z,54.10
2023-05-17T03:06:25.497Z,54.10
2023-05-17T03:08:53.719Z,54.20
2023-05-17T03:11:22.754Z,54.20
2023-05-17T03:13:52.058Z,54.10
2023-05-17T03:16:23.467Z,54.20
2023-05-17T03:18:52.831Z,54.30
2023-05-17T03:21:21.237Z,54.20
2023-05-17T03:23:50.263Z,54.20
2023-05-17T03:26:19.706Z,54.20
2023-05-17T03:28:51.954Z,54.20
2023-05-17T03:31:20.418Z,54.20
2023-05-17T03:33:48.375Z,54.20
2023-05-17T03:36:16.381Z,54.20
2023-05-17T03:38:44.187Z,54.20
2023-05-17T03:41:12.372Z,54.20
2023-05-17T03:43:41.051Z,54.30
2023-05-17T03:46:12.391Z,54.40
2023-05-17T03:48:40.332Z,54.40
2023-05-17T03:51:08.393Z,54.40
2023-05-17T03:53:40.953Z,54.40
2023-05-17T03:56:08.830Z,54.40
2023-05-17T03:58:37.730Z,54.20
2023-05-17T04:01:06.744Z,54.10
2023-05-17T04:03:37.324Z,54.10
2023-05-17T04:06:07.192Z,54.10
2023-05-17T04:08:36.098Z,54.10
2023-05-17T04:11:10.076Z,54.00
2023-05-17T04:13:38.417Z,54.00
2023-05-17T04:16:07.016Z,54.00
2023-05-17T04:18:37.034Z,54.10
2023-05-17T04:21:05.157Z,54.00
2023-05-17T04:23:34.695Z,54.00
2023-05-17T04:26:03.246Z,54.00
2023-05-17T04:28:32.529Z,54.00
2023-05-17T04:31:00.308Z,54.00
2023-05-17T04:33:28.400Z,54.00
2023-05-17T04:35:57.684Z,54.00
2023-05-17T04:38:27.025Z,54.00
2023-05-17T04:41:01.870Z,54.00
2023-05-17T04:43:29.685Z,54.00
2023-05-17T04:45:58.581Z,54.00
2023-05-17T04:48:29.428Z,54.00
2023-05-17T04:51:01.184Z,54.00
2023-05-17T04:53:29.545Z,54.00
2023-05-17T04:55:57.686Z,54.00
2023-05-17T04:58:27.056Z,54.00
2023-05-17T05:00:58.579Z,54.00
2023-05-17T05:03:26.423Z,53.90
2023-05-17T05:05:54.992Z,53.90
2023-05-17T05:08:24.412Z,54.00
2023-05-17T05:10:54.679Z,54.00
2023-05-17T05:13:24.578Z,54.10
2023-05-17T05:15:53.741Z,54.10
2023-05-17T05:18:21.624Z,54.00
2023-05-17T05:20:50.111Z,54.00
2023-05-17T05:23:19.020Z,54.00
2023-05-17T05:25:51.121Z,54.10
2023-05-17T05:28:19.286Z,54.10
2023-05-17T05:30:47.054Z,54.00
2023-05-17T05:33:16.882Z,54.00
2023-05-17T05:35:45.673Z,54.00
2023-05-17T05:38:13.435Z,54.00
2023-05-17T05:40:41.417Z,53.90
2023-05-17T05:43:16.553Z,53.90
2023-05-17T05:45:47.228Z,53.80
2023-05-17T05:48:15.377Z,53.80
2023-05-17T05:50:43.928Z,53.80
2023-05-17T05:53:18.989Z,53.80
2023-05-17T05:55:52.103Z,53.80
2023-05-17T05:58:21.126Z,53.80
2023-05-17T06:00:50.358Z,53.80
2023-05-17T06:03:18.278Z,53.70
2023-05-17T06:05:46.143Z,53.70
2023-05-17T06:08:14.054Z,53.80
2023-05-17T06:10:41.835Z,53.70
2023-05-17T06:13:09.597Z,53.70
2023-05-17T06:15:37.382Z,53.70
2023-05-17T06:18:06.695Z,53.70
2023-05-17T06:20:34.556Z,53.70
2023-05-17T06:23:04.945Z,53.70
2023-05-17T06:25:32.680Z,53.70
2023-05-17T06:28:02.534Z,53.70
2023-05-17T06:30:30.596Z,53.80
2023-05-17T06:32:59.181Z,53.70
2023-05-17T06:35:30.170Z,53.70
2023-05-17T06:38:00.912Z,53.80
2023-05-17T06:40:28.718Z,53.80
2023-05-17T06:42:56.582Z,53.80
2023-05-17T06:45:24.499Z,53.90
2023-05-17T06:47:52.490Z,53.70
2023-05-17T06:50:20.376Z,53.80
2023-05-17T06:52:49.584Z,53.70
2023-05-17T06:55:17.501Z,53.70
2023-05-17T06:57:45.356Z,53.60
2023-05-17T07:00:14.373Z,53.60
2023-05-17T07:02:42.355Z,53.60
2023-05-17T07:05:10.415Z,53.60
2023-05-17T07:07:38.455Z,53.60
2023-05-17T07:10:08.642Z,53.60
2023-05-17T07:12:36.468Z,53.50
2023-05-17T07:15:04.405Z,53.60
2023-05-17T07:17:32.232Z,53.50
2023-05-17T07:20:00.229Z,53.50
2023-05-17T07:22:28.069Z,53.40
2023-05-17T07:24:55.906Z,53.40
2023-05-17T07:27:24.939Z,53.30
2023-05-17T07:29:52.645Z,52.90
2023-05-17T07:32:20.371Z,52.90
2023-05-17T07:34:48.131Z,52.90
2023-05-17T07:37:15.919Z,53.40
2023-05-17T07:39:43.755Z,53.30
2023-05-17T07:42:11.515Z,53.20
2023-05-17T07:44:40.782Z,53.50
2023-05-17T07:47:08.709Z,53.20
2023-05-17T07:49:36.523Z,49.80
2023-05-17T07:52:04.432Z,49.20
2023-05-17T07:54:32.306Z,49.90
2023-05-17T07:57:00.306Z,50.70
2023-05-17T07:59:28.159Z,51.10
2023-05-17T08:01:57.728Z,51.10
2023-05-17T08:04:25.480Z,50.60
2023-05-17T08:06:53.339Z,50.80
2023-05-17T08:09:21.192Z,51.00
2023-05-17T08:11:49.042Z,51.50
2023-05-17T08:14:16.966Z,52.10
2023-05-17T08:16:46.259Z,53.10
2023-05-17T08:19:16.327Z,53.50
2023-05-17T08:21:46.167Z,54.00
2023-05-17T08:24:14.029Z,54.50
2023-05-17T08:26:41.840Z,54.60
2023-05-17T08:29:09.577Z,55.50
2023-05-17T08:31:37.282Z,55.90
2023-05-17T08:34:05.117Z,55.60
2023-05-17T08:36:34.386Z,56.30
2023-05-17T08:39:02.198Z,56.90
2023-05-17T08:41:30.302Z,57.20
2023-05-17T08:43:59.023Z,57.50
2023-05-17T08:46:27.023Z,57.70
2023-05-17T08:48:59.862Z,58.30
2023-05-17T08:51:28.552Z,59.60
2023-05-17T08:53:57.645Z,59.80
2023-05-17T08:56:25.477Z,60.70
2023-05-17T08:58:57.245Z,61.10
2023-05-17T09:01:27.462Z,61.30
2023-05-17T09:03:56.486Z,62.10
2023-05-17T09:06:24.749Z,63.20
2023-05-17T09:08:52.742Z,56.80
2023-05-17T09:11:28.022Z,61.40
2023-05-17T09:13:58.867Z,60.90
2023-05-17T09:16:28.321Z,60.60
2023-05-17T09:18:56.441Z,60.60
2023-05-17T09:21:24.447Z,60.90
2023-05-17T09:24:02.245Z,61.20
2023-05-17T09:26:41.794Z,62.10
2023-05-17T09:29:10.925Z,62.90
2023-05-17T09:31:38.875Z,61.80
2023-05-17T09:34:08.072Z,61.90
2023-05-17T09:36:37.278Z,62.80
2023-05-17T09:39:06.323Z,62.80
2023-05-17T09:41:34.276Z,63.20
2023-05-17T09:44:04.405Z,63.60
2023-05-17T09:46:34.911Z,64.00
2023-05-17T09:49:03.228Z,64.20
2023-05-17T09:51:34.979Z,64.70
2023-05-17T09:54:02.784Z,65.10
2023-05-17T09:56:30.832Z,65.50
2023-05-17T09:58:59.318Z,65.00
2023-05-17T10:01:29.478Z,65.20
2023-05-17T10:03:57.497Z,65.40
2023-05-17T10:06:39.248Z,65.10
2023-05-17T10:09:14.609Z,64.90
2023-05-17T10:11:44.206Z,65.10
2023-05-17T10:14:13.163Z,64.50
2023-05-17T10:16:42.980Z,61.60
2023-05-17T10:19:11.157Z,60.00
2023-05-17T10:21:39.258Z,58.60
2023-05-17T10:24:07.910Z,56.00
2023-05-17T10:26:36.752Z,55.80
2023-05-17T10:29:04.583Z,51.70
2023-05-17T10:31:33.442Z,51.60
2023-05-17T10:34:03.313Z,50.40
2023-05-17T10:36:31.161Z,49.50
2023-05-17T10:38:59.201Z,48.70
2023-05-17T10:41:28.542Z,48.20
2023-05-17T10:43:56.310Z,47.90
2023-05-17T10:46:24.445Z,47.50
2023-05-17T10:48:52.893Z,47.00
2023-05-17T10:51:25.505Z,46.70
2023-05-17T10:54:06.702Z,46.50
2023-05-17T10:56:34.671Z,46.10
2023-05-17T10:59:22.405Z,46.70
2023-05-17T11:01:58.837Z,43.50
2023-05-17T11:04:27.945Z,46.10
2023-05-17T11:07:25.019Z,46.70
2023-05-17T11:09:54.194Z,46.60
2023-05-17T11:12:41.764Z,46.90
2023-05-17T11:15:10.433Z,47.00
2023-05-17T11:17:49.842Z,47.50
2023-05-17T11:20:37.177Z,48.20
2023-05-17T11:23:07.590Z,47.50
2023-05-17T11:25:36.800Z,48.10
2023-05-17T11:28:08.698Z,48.30
2023-05-17T11:30:41.020Z,48.40
2023-05-17T11:33:20.594Z,48.10
2023-05-17T11:35:56.596Z,46.90
2023-05-17T11:38:30.260Z,47.20
2023-05-17T11:40:58.198Z,46.80
2023-05-17T11:43:28.218Z,47.00
2023-05-17T11:45:57.311Z,46.90
2023-05-17T11:48:26.440Z,46.00
2023-05-17T11:50:55.338Z,46.40
2023-05-17T11:53:23.214Z,46.40
2023-05-17T11:55:53.067Z,46.30
2023-05-17T11:58:21.380Z,45.60
2023-05-17T12:00:53.556Z,45.00
2023-05-17T12:03:21.921Z,42.80
2023-05-17T12:05:50.724Z,42.00
2023-05-17T12:08:18.883Z,43.20
2023-05-17T12:10:48.136Z,43.70
2023-05-17T12:13:17.223Z,43.90
2023-05-17T12:15:46.961Z,43.30
2023-05-17T12:18:14.896Z,44.00
2023-05-17T12:20:55.122Z,44.50
2023-05-17T12:23:30.167Z,44.80
2023-05-17T12:26:05.446Z,43.60
2023-05-17T12:28:34.783Z,44.30
2023-05-17T12:31:03.302Z,44.60
2023-05-17T12:33:32.308Z,44.20
2023-05-17T12:36:00.261Z,44.50
2023-05-17T12:38:31.875Z,44.50
2023-05-17T12:41:01.155Z,44.70
2023-05-17T12:43:29.991Z,46.20
2023-05-17T12:46:03.949Z,47.10
2023-05-17T12:48:32.095Z,47.40
2023-05-17T12:51:06.389Z,47.30
2023-05-17T12:53:39.379Z,46.70
2023-05-17T12:56:07.645Z,47.00
2023-05-17T12:58:35.473Z,46.50
2023-05-17T13:01:06.885Z,46.60
2023-05-17T13:03:35.026Z,47.00
2023-05-17T13:06:04.042Z,47.70
2023-05-17T13:08:32.135Z,47.20
2023-05-17T13:11:10.041Z,47.30
2023-05-17T13:13:37.855Z,48.10
2023-05-17T13:16:07.249Z,48.20
2023-05-17T13:18:51.111Z,47.70
2023-05-17T13:21:19.327Z,49.20
2023-05-17T13:23:47.864Z,48.30
2023-05-17T13:26:16.021Z,48.90
2023-05-17T13:28:43.770Z,49.90
2023-05-17T13:31:21.686Z,49.80
2023-05-17T13:33:50.243Z,50.30
2023-05-17T13:36:18.152Z,50.70
2023-05-17T13:38:45.902Z,49.70
2023-05-17T13:41:13.862Z,48.90
2023-05-17T13:43:41.606Z,49.30
2023-05-17T13:46:09.328Z,48.10
2023-05-17T13:48:40.447Z,49.60
2023-05-17T13:51:10.458Z,48.30
2023-05-17T13:53:38.920Z,49.10
2023-05-17T13:56:07.346Z,48.40
2023-05-17T13:58:35.145Z,48.90
2023-05-17T14:01:03.345Z,48.70
2023-05-17T14:03:31.217Z,48.80
2023-05-17T14:06:00.327Z,48.30
2023-05-17T14:08:28.093Z,47.10
2023-05-17T14:10:55.857Z,45.50
2023-05-17T14:13:23.569Z,44.90
2023-05-17T14:15:51.293Z,45.70
2023-05-17T14:18:19.084Z,46.10
2023-05-17T14:20:47.058Z,46.50
2023-05-17T14:23:16.091Z,46.40
2023-05-17T14:25:44.377Z,46.40
2023-05-17T14:28:13.533Z,45.60
2023-05-17T14:30:41.618Z,46.00
2023-05-17T14:33:09.575Z,46.10
2023-05-17T14:35:37.482Z,45.90
2023-05-17T14:38:05.208Z,45.40
2023-05-17T14:40:34.242Z,46.50
2023-05-17T14:43:02.003Z,45.40
2023-05-17T14:45:29.836Z,46.80
2023-05-17T14:47:57.789Z,47.90
2023-05-17T14:50:25.673Z,48.40
2023-05-17T14:52:53.446Z,47.50
2023-05-17T14:55:21.181Z,48.40
2023-05-17T14:57:51.998Z,50.60
2023-05-17T15:00:20.255Z,48.60
2023-05-17T15:02:48.022Z,48.00
2023-05-17T15:05:15.821Z,48.70
2023-05-17T15:07:43.594Z,48.20
2023-05-17T15:10:12.954Z,49.10
2023-05-17T15:12:40.720Z,48.70
2023-05-17T15:15:11.106Z,48.80
2023-05-17T15:17:38.868Z,48.90
2023-05-17T15:20:08.436Z,48.90
2023-05-17T15:22:36.595Z,48.50
2023-05-17T15:25:05.005Z,48.90
2023-05-17T15:27:32.705Z,48.90
2023-05-17T15:30:00.709Z,49.50
2023-05-17T15:32:29.834Z,49.60
2023-05-17T15:34:59.036Z,49.50
2023-05-17T15:37:26.819Z,49.50
2023-05-17T15:39:54.562Z,49.50
2023-05-17T15:42:22.263Z,50.00
2023-05-17T15:44:50.055Z,49.20
2023-05-17T15:47:18.434Z,49.00
2023-05-17T15:49:48.359Z,48.50
2023-05-17T15:52:16.117Z,49.20
2023-05-17T15:54:43.805Z,48.70
2023-05-17T15:57:11.546Z,49.80
2023-05-17T15:59:39.253Z,49.70
2023-05-17T16:02:07.372Z,49.30
2023-05-17T16:04:35.147Z,49.30
2023-05-17T16:07:04.460Z,48.70
2023-05-17T16:09:32.338Z,48.80
2023-05-17T16:12:00.173Z,49.40
2023-05-17T16:14:27.945Z,49.60
2023-05-17T16:16:55.879Z,49.70
2023-05-17T16:19:24.218Z,49.50
2023-05-17T16:21:52.172Z,49.60
2023-05-17T16:24:21.818Z,50.40
2023-05-17T16:26:49.545Z,50.80
2023-05-17T16:29:18.455Z,50.80
2023-05-17T16:31:46.409Z,49.90
2023-05-17T16:34:14.333Z,50.10
2023-05-17T16:36:42.178Z,49.90
2023-05-17T16:39:09.894Z,49.90
2023-05-17T16:41:39.481Z,49.90
2023-05-17T16:44:07.311Z,50.80
2023-05-17T16:46:35.105Z,50.30
2023-05-17T16:49:02.870Z,49.90
2023-05-17T16:51:31.294Z,50.20
2023-05-17T16:53:58.999Z,49.80
2023-05-17T16:56:26.783Z,49.50
2023-05-17T16:58:55.783Z,49.70
2023-05-17T17:01:23.526Z,49.20
2023-05-17T17:03:51.413Z,49.20
2023-05-17T17:06:19.153Z,48.00
2023-05-17T17:08:47.333Z,47.00
2023-05-17T17:11:15.049Z,47.60
2023-05-17T17:13:42.795Z,48.00
2023-05-17T17:16:12.066Z,49.00
2023-05-17T17:18:39.861Z,49.30
2023-05-17T17:21:08.338Z,49.80
2023-05-17T17:23:36.594Z,50.10
2023-05-17T17:26:04.394Z,50.30
2023-05-17T17:28:32.137Z,50.60
2023-05-17T17:30:59.899Z,50.70
2023-05-17T17:33:28.971Z,50.90
2023-05-17T17:35:56.711Z,50.60
2023-05-17T17:38:24.544Z,51.30
2023-05-17T17:40:52.352Z,51.20
2023-05-17T17:43:20.058Z,51.40
2023-05-17T17:45:47.784Z,51.60
2023-05-17T17:48:15.585Z,51.70
2023-05-17T17:50:44.643Z,52.10
2023-05-17T17:53:12.357Z,51.80
2023-05-17T17:55:40.114Z,52.70
2023-05-17T17:58:07.813Z,52.80
2023-05-17T18:00:35.545Z,53.90
2023-05-17T18:03:03.353Z,53.80
2023-05-17T18:05:31.265Z,53.50
2023-05-17T18:08:00.547Z,53.90
2023-05-17T18:10:28.523Z,54.60
2023-05-17T18:12:56.419Z,54.30
2023-05-17T18:15:24.267Z,54.40
2023-05-17T18:17:52.223Z,54.30
2023-05-17T18:20:22.083Z,54.10
2023-05-17T18:22:49.961Z,54.50
2023-05-17T18:25:19.039Z,55.70
2023-05-17T18:27:46.800Z,55.40
2023-05-17T18:30:14.858Z,56.90
2023-05-17T18:32:42.738Z,56.50
2023-05-17T18:35:10.979Z,55.60
2023-05-17T18:37:38.730Z,55.70
2023-05-17T18:40:07.712Z,55.40
2023-05-17T18:42:36.809Z,55.50
2023-05-17T18:45:05.127Z,55.70
2023-05-17T18:47:32.951Z,55.60
2023-05-17T18:50:00.970Z,55.90
2023-05-17T18:52:28.784Z,55.70
2023-05-17T18:54:56.503Z,55.80
2023-05-17T18:57:24.266Z,56.00
2023-05-17T18:59:53.562Z,55.90
2023-05-17T19:02:21.275Z,55.80
2023-05-17T19:04:49.260Z,55.80
2023-05-17T19:07:16.998Z,55.70
2023-05-17T19:09:45.820Z,55.70
2023-05-17T19:12:13.619Z,55.80
2023-05-17T19:14:41.407Z,56.10
2023-05-17T19:17:10.718Z,55.90
2023-05-17T19:19:38.602Z,56.00
2023-05-17T19:22:06.472Z,55.80
2023-05-17T19:24:35.228Z,56.00
2023-05-17T19:27:02.963Z,56.20
2023-05-17T19:29:32.532Z,56.70
2023-05-17T19:32:00.264Z,57.10
2023-05-17T19:34:29.289Z,57.60
2023-05-17T19:36:57.370Z,58.00
2023-05-17T19:39:25.558Z,58.10
2023-05-17T19:41:53.313Z,58.60
2023-05-17T19:44:21.086Z,58.70
2023-05-17T19:46:49.000Z,59.50
2023-05-17T19:49:16.786Z,59.70
2023-05-17T19:51:46.594Z,60.10
2023-05-17T19:54:14.360Z,61.30
2023-05-17T19:56:42.146Z,61.70
2023-05-17T19:59:09.864Z,62.60
2023-05-17T20:01:37.732Z,63.50
2023-05-17T20:04:05.760Z,64.20
2023-05-17T20:06:33.587Z,64.90
2023-05-17T20:09:02.649Z,65.90
2023-05-17T20:11:30.537Z,66.00
2023-05-17T20:13:58.277Z,66.20
2023-05-17T20:16:28.048Z,66.60
2023-05-17T20:18:57.899Z,66.50
2023-05-17T20:21:26.310Z,67.20
2023-05-17T20:24:00.866Z,67.30
2023-05-17T20:26:32.029Z,67.50
2023-05-17T20:29:00.015Z,68.40
2023-05-17T20:31:28.147Z,68.40
2023-05-17T20:33:55.880Z,68.50
2023-05-17T20:36:23.625Z,68.90
2023-05-17T20:38:51.379Z,68.90
2023-05-17T20:41:19.131Z,68.90
2023-05-17T20:43:49.537Z,69.20
2023-05-17T20:46:18.020Z,69.30
2023-05-17T20:48:47.694Z,69.20
2023-05-17T20:51:15.608Z,69.20
2023-05-17T20:53:43.378Z,69.30
2023-05-17T20:56:11.619Z,69.30
2023-05-17T20:58:39.359Z,69.00
2023-05-17T21:01:08.398Z,68.80
2023-05-17T21:03:39.350Z,69.00
2023-05-17T21:06:08.140Z,68.60
2023-05-17T21:08:36.706Z,68.40
2023-05-17T21:11:04.475Z,68.30
2023-05-17T21:13:32.251Z,68.00
2023-05-17T21:16:00.024Z,67.40
2023-05-17T21:18:29.225Z,67.30
2023-05-17T21:20:56.959Z,67.00
2023-05-17T21:23:24.669Z,66.90
2023-05-17T21:25:52.395Z,66.50
2023-05-17T21:28:20.128Z,66.60
2023-05-17T21:30:47.830Z,66.50
2023-05-17T21:33:15.642Z,65.80
2023-05-17T21:35:44.660Z,65.00
2023-05-17T21:38:12.588Z,65.00
2023-05-17T21:40:40.446Z,64.80
2023-05-17T21:43:09.709Z,64.70
2023-05-17T21:45:37.606Z,64.30
2023-05-17T21:48:06.003Z,63.60
2023-05-17T21:50:33.746Z,63.40
2023-05-17T21:53:02.783Z,62.70
2023-05-17T21:55:36.447Z,62.70
2023-05-17T21:58:08.829Z,62.20
2023-05-17T22:00:36.560Z,62.40
2023-05-17T22:03:04.417Z,61.60
2023-05-17T22:05:32.279Z,60.90
2023-05-17T22:08:00.821Z,60.70
2023-05-17T22:10:30.521Z,60.60
2023-05-17T22:12:58.397Z,60.40
2023-05-17T22:15:26.127Z,59.50
2023-05-17T22:17:54.142Z,59.40
2023-05-17T22:20:23.700Z,58.90
2023-05-17T22:22:51.690Z,58.70
2023-05-17T22:25:19.459Z,58.70
2023-05-17T22:27:48.472Z,58.50
2023-05-17T22:30:16.180Z,57.20
2023-05-17T22:32:44.393Z,58.00
2023-05-17T22:35:12.267Z,57.10
2023-05-17T22:37:42.235Z,56.90
2023-05-17T22:40:10.965Z,56.30
2023-05-17T22:42:38.865Z,55.90
2023-05-17T22:45:08.747Z,55.70
2023-05-17T22:47:36.578Z,55.10
2023-05-17T22:50:04.709Z,54.90
2023-05-17T22:52:32.713Z,54.70
2023-05-17T22:55:01.356Z,54.00
2023-05-17T22:57:29.089Z,53.90
2023-05-17T22:59:56.831Z,53.30
2023-05-17T23:02:26.002Z,53.20
2023-05-17T23:04:53.858Z,52.70
2023-05-17T23:07:21.810Z,52.10
2023-05-17T23:09:49.599Z,51.90
2023-05-17T23:12:17.292Z,51.80
2023-05-17T23:14:45.064Z,51.20
2023-05-17T23:17:12.791Z,50.80
2023-05-17T23:19:41.888Z,50.40
2023-05-17T23:22:10.658Z,49.90
2023-05-17T23:24:38.916Z,49.90
2023-05-17T23:27:10.032Z,49.50
2023-05-17T23:29:41.291Z,49.30
2023-05-17T23:32:09.133Z,48.90
2023-05-17T23:34:36.950Z,48.70
2023-05-17T23:37:06.049Z,48.40
2023-05-17T23:39:33.782Z,48.00
2023-05-17T23:42:01.525Z,48.10
2023-05-17T23:44:29.254Z,47.70
2023-05-17T23:46:57.042Z,47.40
2023-05-17T23:49:24.776Z,47.80
2023-05-17T23:51:52.496Z,46.90
2023-05-17T23:54:22.192Z,46.70
2023-05-17T23:56:49.902Z,46.30
2023-05-17T23:59:17.611Z,46.20
